Time;durP1;ratioP1;P1;durP2;ratioP2;P2;SDS_P1;SDS_P2;PMS_P1;PMS_P2;Temp;Humidity;BMP_temperature;BMP_pressure;BME280_temperature;BME280_humidity;BME280_pressure;Samples;Min_cycle;Max_cycle;Signal;HPM_P1;HPM_P2
2021/03/19 00:01:46;;;;;;;9.20;5.90;;;2.70;97.30;;;;;;5032857;28;20176;-80
2021/03/19 00:04:12;;;;;;;12.77;5.80;;;2.70;97.30;;;;;;5031291;28;20185;-81
2021/03/19 00:06:37;;;;;;;8.70;5.53;;;2.70;97.30;;;;;;5033553;28;20204;-80
2021/03/19 00:09:06;;;;;;;9.23;6.17;;;2.60;97.30;;;;;;5038960;28;20176;-80
2021/03/19 00:11:32;;;;;;;10.73;5.77;;;2.60;97.30;;;;;;5041488;28;20171;-80
2021/03/19 00:13:58;;;;;;;8.40;5.17;;;2.60;97.30;;;;;;5044742;28;20418;-80
2021/03/19 00:16:24;;;;;;;9.87;5.70;;;2.60;97.30;;;;;;5043758;28;20431;-81
2021/03/19 00:18:50;;;;;;;9.93;5.57;;;2.50;97.30;;;;;;5045147;28;20637;-80
2021/03/19 00:21:15;;;;;;;8.37;5.50;;;2.50;97.30;;;;;;5043695;28;20217;-80
2021/03/19 00:23:41;;;;;;;9.30;5.70;;;2.50;97.30;;;;;;5043981;28;20415;-80
2021/03/19 00:26:07;;;;;;;8.73;5.87;;;2.50;97.30;;;;;;5043882;28;20457;-80
2021/03/19 00:28:33;;;;;;;10.87;6.50;;;2.40;97.30;;;;;;5043642;28;21014;-80
2021/03/19 00:31:00;;;;;;;8.73;5.50;;;2.50;97.30;;;;;;5043353;28;20180;-80
2021/03/19 00:33:25;;;;;;;8.13;5.37;;;2.40;97.30;;;;;;5055542;28;20188;-79
2021/03/19 00:35:51;;;;;;;9.67;5.40;;;2.40;97.30;;;;;;5070438;28;20452;-80
2021/03/19 00:38:17;;;;;;;9.20;5.60;;;2.40;97.30;;;;;;5075575;28;20691;-80
2021/03/19 00:40:44;;;;;;;10.20;6.13;;;2.40;97.30;;;;;;5083142;28;20222;-81
2021/03/19 00:43:12;;;;;;;10.50;6.70;;;2.40;97.30;;;;;;5082737;28;20404;-81
2021/03/19 00:45:38;;;;;;;14.30;6.37;;;2.40;97.30;;;;;;5082212;28;20476;-80
2021/03/19 00:48:04;;;;;;;11.97;6.53;;;2.30;97.30;;;;;;5067791;28;20406;-80
2021/03/19 00:50:36;;;;;;;9.70;6.30;;;2.30;97.30;;;;;;5064268;28;20187;-80
2021/03/19 00:53:02;;;;;;;9.50;6.43;;;2.30;97.30;;;;;;5057128;28;20419;-80
2021/03/19 00:55:28;;;;;;;9.70;6.10;;;2.30;97.30;;;;;;5064105;28;20442;-80
2021/03/19 00:57:53;;;;;;;10.40;6.07;;;2.30;97.30;;;;;;5064239;28;21029;-81
2021/03/19 01:00:24;;;;;;;12.70;7.27;;;2.30;97.30;;;;;;5065173;28;20485;-80
2021/03/19 01:02:50;;;;;;;9.47;6.00;;;2.30;97.30;;;;;;5063591;28;20183;-80
2021/03/19 01:05:28;;;;;;;10.70;6.30;;;2.30;97.30;;;;;;5063250;28;20426;-80
2021/03/19 01:07:54;;;;;;;11.53;6.10;;;2.30;97.30;;;;;;5061827;28;20160;-80
2021/03/19 01:10:27;;;;;;;9.00;6.30;;;2.30;97.30;;;;;;5062911;28;20429;-80
2021/03/19 01:12:53;;;;;;;10.60;6.80;;;2.40;97.30;;;;;;5063237;28;20440;-79
2021/03/19 01:15:19;;;;;;;13.03;6.50;;;2.40;97.30;;;;;;5061767;28;20430;-80
2021/03/19 01:17:45;;;;;;;11.20;6.27;;;2.40;97.30;;;;;;5063499;28;20557;-80
2021/03/19 01:20:13;;;;;;;9.93;6.20;;;2.40;97.30;;;;;;5062212;28;20462;-80
2021/03/19 01:22:39;;;;;;;11.20;6.40;;;2.40;97.30;;;;;;5063014;28;20175;-80
2021/03/19 01:25:19;;;;;;;10.47;6.90;;;2.40;97.30;;;;;;5062907;28;20414;-80
2021/03/19 01:27:46;;;;;;;10.80;6.23;;;2.40;97.30;;;;;;5062703;28;20414;-79
2021/03/19 01:30:17;;;;;;;11.23;6.80;;;2.40;97.30;;;;;;5064143;28;20407;-81
2021/03/19 01:32:44;;;;;;;16.13;7.23;;;2.50;97.30;;;;;;5063204;28;20415;-80
2021/03/19 01:35:11;;;;;;;11.90;6.90;;;2.50;97.30;;;;;;5063593;28;20442;-80
2021/03/19 01:37:36;;;;;;;13.07;7.10;;;2.40;97.30;;;;;;5062690;28;20445;-80
2021/03/19 01:40:05;;;;;;;12.00;6.53;;;2.40;97.30;;;;;;5062283;28;20450;-80
2021/03/19 01:42:32;;;;;;;11.40;6.70;;;2.40;97.30;;;;;;5062876;28;20172;-81
2021/03/19 01:45:35;;;;;;;9.50;6.80;;;2.40;97.30;;;;;;5060908;28;20427;-80
2021/03/19 01:48:39;;;;;;;13.07;7.30;;;2.40;97.30;;;;;;5065741;28;20413;-80
2021/03/19 01:51:50;;;;;;;13.20;7.00;;;2.30;97.30;;;;;;5064837;28;20422;-80
2021/03/19 01:54:53;;;;;;;35.00;14.33;;;2.30;97.30;;;;;;5027111;28;21218;-81
2021/03/19 01:57:56;;;;;;;56.43;22.57;;;2.30;97.30;;;;;;5064726;28;20440;-80
2021/03/19 02:01:00;;;;;;;68.43;25.90;;;2.30;97.30;;;;;;5083007;28;20457;-79
2021/03/19 02:04:03;;;;;;;62.60;26.00;;;2.20;97.30;;;;;;5065755;28;20420;-80
2021/03/19 02:07:06;;;;;;;68.20;26.30;;;2.20;97.30;;;;;;5064453;28;20504;-80
2021/03/19 02:10:10;;;;;;;67.03;25.80;;;2.20;97.30;;;;;;5063195;28;20409;-80
2021/03/19 02:13:13;;;;;;;63.97;25.40;;;2.20;97.30;;;;;;5081490;28;20437;-80
2021/03/19 02:16:16;;;;;;;64.63;24.47;;;2.20;97.30;;;;;;5063863;28;20944;-81
2021/03/19 02:19:20;;;;;;;60.90;23.70;;;2.20;97.30;;;;;;5063561;28;20944;-80
2021/03/19 02:22:23;;;;;;;59.77;24.43;;;2.20;97.30;;;;;;5059607;28;20432;-81
2021/03/19 02:25:26;;;;;;;65.53;23.97;;;2.10;97.30;;;;;;5056315;28;20512;-80
2021/03/19 02:28:30;;;;;;;60.23;24.20;;;2.00;97.30;;;;;;5064067;28;20558;-80
2021/03/19 02:31:11;;;;;;;56.33;23.90;;;2.00;97.30;;;;;;5082816;28;20466;-80
2021/03/19 02:33:57;;;;;;;51.90;21.10;;;2.10;97.30;;;;;;5062358;28;20408;-80
2021/03/19 02:36:26;;;;;;;53.13;20.93;;;2.10;97.30;;;;;;5062806;28;21018;-80
2021/03/19 02:38:52;;;;;;;50.10;21.50;;;2.10;97.30;;;;;;5063093;28;20410;-80
2021/03/19 02:41:19;;;;;;;52.67;21.23;;;2.10;97.30;;;;;;5063087;28;20984;-80
2021/03/19 02:43:44;;;;;;;51.43;20.87;;;2.10;97.30;;;;;;5063914;28;20455;-80
2021/03/19 02:46:11;;;;;;;51.30;20.40;;;2.10;97.30;;;;;;5062509;28;20461;-80
2021/03/19 02:48:37;;;;;;;52.73;20.97;;;2.10;97.30;;;;;;5043840;28;20168;-81
2021/03/19 02:51:04;;;;;;;53.00;22.20;;;2.10;97.30;;;;;;5043606;28;20418;-80
2021/03/19 02:53:31;;;;;;;49.10;19.43;;;2.00;97.30;;;;;;5043699;28;20421;-80
2021/03/19 02:55:59;;;;;;;50.10;20.90;;;2.00;97.30;;;;;;5043355;28;20430;-80
2021/03/19 02:58:26;;;;;;;42.80;17.87;;;2.00;97.30;;;;;;5061885;28;20948;-80
2021/03/19 03:00:52;;;;;;;42.63;18.77;;;2.00;97.30;;;;;;5060803;28;20485;-79
2021/03/19 03:03:19;;;;;;;49.13;19.93;;;2.00;97.30;;;;;;5042247;28;20779;-80
2021/03/19 03:05:45;;;;;;;45.30;18.67;;;2.00;97.30;;;;;;5042465;28;20426;-80
2021/03/19 03:08:13;;;;;;;44.43;18.33;;;2.00;97.30;;;;;;5041557;28;20414;-80
2021/03/19 03:10:40;;;;;;;43.73;17.73;;;1.90;97.30;;;;;;5040205;28;20508;-80
2021/03/19 03:13:06;;;;;;;45.33;18.10;;;1.90;97.30;;;;;;5043885;28;20415;-80
2021/03/19 03:15:32;;;;;;;40.07;15.40;;;1.90;97.30;;;;;;5041781;28;20458;-80
2021/03/19 03:17:58;;;;;;;35.83;17.53;;;1.90;97.30;;;;;;5042161;28;20464;-80
2021/03/19 03:20:34;;;;;;;43.03;16.73;;;1.80;97.30;;;;;;5034920;28;20249;-80
2021/03/19 03:23:00;;;;;;;39.53;15.27;;;1.80;97.30;;;;;;5044383;28;20206;-81
2021/03/19 03:25:26;;;;;;;44.37;18.30;;;1.70;97.30;;;;;;5045321;28;20433;-80
2021/03/19 03:27:52;;;;;;;36.93;16.10;;;1.60;97.30;;;;;;5044580;28;20644;-81
2021/03/19 03:30:33;;;;;;;37.50;17.57;;;1.50;97.30;;;;;;5045496;28;20211;-81
2021/03/19 03:33:00;;;;;;;39.30;15.87;;;1.50;97.30;;;;;;5045502;28;20802;-81
2021/03/19 03:35:26;;;;;;;39.90;16.33;;;1.50;97.30;;;;;;5044669;28;20501;-81
2021/03/19 03:37:53;;;;;;;38.33;17.70;;;1.50;97.30;;;;;;5045147;28;20425;-80
2021/03/19 03:40:34;;;;;;;51.00;18.90;;;1.50;97.30;;;;;;5044116;28;20466;-81
2021/03/19 03:43:00;;;;;;;48.33;17.97;;;1.50;97.30;;;;;;5046417;28;20425;-82
2021/03/19 03:45:26;;;;;;;43.57;19.07;;;1.40;97.30;;;;;;5066494;28;20477;-81
2021/03/19 03:47:52;;;;;;;47.87;18.77;;;1.40;97.30;;;;;;5076811;28;20417;-80
2021/03/19 03:50:23;;;;;;;42.80;19.47;;;1.40;97.30;;;;;;5064784;28;20251;-81
2021/03/19 03:52:49;;;;;;;45.63;18.70;;;1.40;97.30;;;;;;5064226;28;20324;-81
2021/03/19 03:55:15;;;;;;;49.90;19.70;;;1.40;97.30;;;;;;5063590;28;20488;-81
2021/03/19 03:57:40;;;;;;;36.33;14.50;;;1.40;97.30;;;;;;5062833;28;20198;-83
2021/03/19 04:00:12;;;;;;;24.60;10.17;;;1.40;97.30;;;;;;5065219;28;21038;-81
2021/03/19 04:02:38;;;;;;;13.17;7.50;;;1.30;97.30;;;;;;5065237;28;20212;-82
2021/03/19 04:05:09;;;;;;;12.20;7.27;;;1.30;97.30;;;;;;5063626;28;20440;-82
2021/03/19 04:07:35;;;;;;;16.70;7.80;;;1.30;97.30;;;;;;5063158;28;20444;-82
2021/03/19 04:10:01;;;;;;;17.60;8.27;;;1.30;97.30;;;;;;5064261;28;20417;-82
2021/03/19 04:12:27;;;;;;;24.60;10.87;;;1.30;97.30;;;;;;5064281;28;20651;-81
2021/03/19 04:14:52;;;;;;;27.00;12.40;;;1.40;97.30;;;;;;5062464;28;20428;-83
2021/03/19 04:17:36;;;;;;;33.97;15.77;;;1.40;97.30;;;;;;5050140;28;20223;-83
2021/03/19 04:20:05;;;;;;;43.97;19.40;;;1.40;97.30;;;;;;5081674;28;20210;-82
2021/03/19 04:22:31;;;;;;;50.27;18.67;;;1.40;97.30;;;;;;5078658;28;20462;-82
2021/03/19 04:24:56;;;;;;;50.50;20.20;;;1.50;97.30;;;;;;5081062;28;20408;-83
2021/03/19 04:27:30;;;;;;;50.93;21.00;;;1.50;97.30;;;;;;5058554;28;20179;-82
2021/03/19 04:29:57;;;;;;;55.40;21.50;;;1.50;97.30;;;;;;5052079;28;20671;-82
2021/03/19 04:32:24;;;;;;;52.53;20.57;;;1.40;97.30;;;;;;5072175;28;20424;-82
2021/03/19 04:34:49;;;;;;;54.90;20.47;;;1.40;97.30;;;;;;5069349;28;20425;-83
2021/03/19 04:37:15;;;;;;;57.17;22.90;;;1.40;97.30;;;;;;5060915;28;21027;-82
2021/03/19 04:39:45;;;;;;;52.13;20.80;;;1.40;97.30;;;;;;5062141;28;20195;-82
2021/03/19 04:42:13;;;;;;;49.33;20.47;;;1.40;97.30;;;;;;5062322;28;20791;-82
2021/03/19 04:44:42;;;;;;;48.20;17.73;;;1.40;97.30;;;;;;5062349;28;20948;-83
2021/03/19 04:47:08;;;;;;;46.73;19.00;;;1.40;97.30;;;;;;5114865;23;20584;-84
2021/03/19 04:49:35;;;;;;;42.67;18.77;;;1.40;97.30;;;;;;5064409;28;20780;-85
2021/03/19 04:52:01;;;;;;;45.90;19.20;;;1.40;97.30;;;;;;5056006;28;20860;-84
2021/03/19 04:54:28;;;;;;;48.60;18.23;;;1.40;97.30;;;;;;5055017;28;20413;-84
2021/03/19 04:56:54;;;;;;;43.37;16.87;;;1.40;97.30;;;;;;5042979;28;20430;-84
2021/03/19 04:59:20;;;;;;;39.63;16.43;;;1.40;97.30;;;;;;5038187;28;21015;-85
2021/03/19 05:02:00;;;;;;;39.37;17.37;;;1.40;97.30;;;;;;5038260;28;20663;-84
2021/03/19 05:04:27;;;;;;;36.07;15.10;;;1.40;97.30;;;;;;5036721;28;20179;-84
2021/03/19 05:06:59;;;;;;;33.03;15.30;;;1.40;97.30;;;;;;5054130;28;20438;-85
2021/03/19 05:09:26;;;;;;;34.93;15.00;;;1.40;97.30;;;;;;5036588;28;20449;-84
2021/03/19 05:11:51;;;;;;;30.10;14.00;;;1.40;97.30;;;;;;5036724;28;20478;-84
2021/03/19 05:14:19;;;;;;;32.90;14.30;;;1.40;97.30;;;;;;5054046;28;20441;-85
2021/03/19 05:16:45;;;;;;;31.90;13.27;;;1.30;97.30;;;;;;5036185;28;20196;-84
2021/03/19 05:19:11;;;;;;;26.07;12.47;;;1.30;97.30;;;;;;5035830;28;20451;-85
2021/03/19 05:21:36;;;;;;;26.20;11.87;;;1.30;97.30;;;;;;5036896;28;20219;-85
2021/03/19 05:24:02;;;;;;;25.00;12.00;;;1.30;97.30;;;;;;5036685;28;20426;-85
2021/03/19 05:26:28;;;;;;;20.53;9.97;;;1.30;97.30;;;;;;5036992;28;20191;-85
2021/03/19 05:28:54;;;;;;;18.40;8.93;;;1.30;97.30;;;;;;5037356;28;20414;-84
2021/03/19 05:31:20;;;;;;;17.90;7.87;;;1.30;97.30;;;;;;5054751;28;20410;-85
2021/03/19 05:33:51;;;;;;;21.30;8.10;;;1.30;97.30;;;;;;5054703;28;20229;-85
2021/03/19 05:36:20;;;;;;;14.60;7.50;;;1.30;97.30;;;;;;5036545;28;20261;-85
2021/03/19 05:38:46;;;;;;;12.60;6.50;;;1.30;97.30;;;;;;5037398;28;21001;-84
2021/03/19 05:41:13;;;;;;;13.07;7.30;;;1.30;97.30;;;;;;5054533;28;20545;-85
2021/03/19 05:44:00;;;;;;;14.57;6.60;;;1.20;97.30;;;;;;5036750;28;20460;-85
2021/03/19 05:46:46;;;;;;;11.10;6.20;;;1.20;97.30;;;;;;5036623;28;20466;-84
2021/03/19 05:49:33;;;;;;;11.13;5.77;;;1.20;97.30;;;;;;5037449;28;20508;-85
2021/03/19 05:52:08;;;;;;;11.37;6.73;;;1.20;97.30;;;;;;5038096;28;20418;-86
2021/03/19 05:54:40;;;;;;;14.20;6.63;;;1.20;97.30;;;;;;5038994;28;20410;-85
2021/03/19 05:57:07;;;;;;;17.67;7.77;;;1.20;97.30;;;;;;5039954;28;20462;-86
2021/03/19 05:59:54;;;;;;;16.37;7.93;;;1.20;97.30;;;;;;5038772;28;20465;-85
2021/03/19 06:02:35;;;;;;;22.23;8.70;;;1.20;97.30;;;;;;5050611;28;20410;-85
2021/03/19 06:05:17;;;;;;;12.93;7.63;;;1.20;97.30;;;;;;5057519;28;20402;-85
2021/03/19 06:07:46;;;;;;;14.07;7.83;;;1.30;97.30;;;;;;5039820;28;20445;-85
2021/03/19 06:10:16;;;;;;;12.97;7.23;;;1.30;97.30;;;;;;5055952;28;20414;-84
2021/03/19 06:12:42;;;;;;;11.77;6.83;;;1.30;97.30;;;;;;5040942;28;20513;-85
2021/03/19 06:15:25;;;;;;;17.67;8.20;;;1.30;97.30;;;;;;5041175;28;20418;-85
2021/03/19 06:17:51;;;;;;;14.63;7.40;;;1.30;97.30;;;;;;5032905;28;20410;-85
2021/03/19 06:20:19;;;;;;;15.93;8.20;;;1.30;97.30;;;;;;5040036;28;20465;-85
2021/03/19 06:22:59;;;;;;;17.13;8.70;;;1.30;97.30;;;;;;5040849;28;20763;-85
2021/03/19 06:25:28;;;;;;;16.90;8.60;;;1.30;97.30;;;;;;5039600;28;20418;-81
2021/03/19 06:28:23;;;;;;;20.20;8.13;;;1.40;97.30;;;;;;5039432;28;20414;-85
2021/03/19 06:30:50;;;;;;;15.43;8.23;;;1.40;97.30;;;;;;5056546;28;20422;-86
2021/03/19 06:33:26;;;;;;;20.13;9.07;;;1.40;97.30;;;;;;5038332;28;20719;-85
2021/03/19 06:36:19;;;;;;;17.17;7.83;;;1.40;97.30;;;;;;5029974;28;20442;-82
2021/03/19 06:39:02;;;;;;;16.53;8.83;;;1.40;97.30;;;;;;5015431;28;20418;-85
2021/03/19 06:41:32;;;;;;;17.60;8.30;;;1.50;97.30;;;;;;5017291;28;20441;-85
2021/03/19 06:44:22;;;;;;;18.17;8.60;;;1.50;97.30;;;;;;5035118;28;20774;-85
2021/03/19 06:46:58;;;;;;;17.60;8.80;;;1.50;97.30;;;;;;5019499;28;20994;-83
2021/03/19 06:49:26;;;;;;;17.53;8.53;;;1.60;97.30;;;;;;5015605;28;20441;-85
2021/03/19 06:51:55;;;;;;;15.93;8.53;;;1.60;97.30;;;;;;5016818;28;20427;-85
2021/03/19 06:54:24;;;;;;;16.70;8.30;;;1.70;97.30;;;;;;5017156;28;20525;-85
2021/03/19 06:57:06;;;;;;;17.63;8.40;;;1.70;97.30;;;;;;5017278;28;20439;-84
2021/03/19 06:59:45;;;;;;;20.40;8.83;;;1.80;97.30;;;;;;5017044;28;20463;-84
2021/03/19 07:02:20;;;;;;;20.17;8.77;;;1.80;97.30;;;;;;5017261;28;20554;-84
2021/03/19 07:04:55;;;;;;;16.87;8.13;;;1.70;97.30;;;;;;5016943;28;20415;-86
2021/03/19 07:07:33;;;;;;;18.40;9.53;;;1.70;97.30;;;;;;5026229;28;20442;-84
2021/03/19 07:09:58;;;;;;;20.50;9.93;;;1.80;97.30;;;;;;5028028;28;20414;-86
2021/03/19 07:12:29;;;;;;;25.23;12.03;;;1.80;97.30;;;;;;5065119;28;20411;-86
2021/03/19 07:15:02;;;;;;;24.60;10.00;;;1.80;97.30;;;;;;5043457;28;20168;-84
2021/03/19 07:17:36;;;;;;;21.80;9.83;;;1.80;97.30;;;;;;5035965;28;20441;-84
2021/03/19 07:20:23;;;;;;;25.20;11.27;;;1.80;97.30;;;;;;5034294;28;20457;-85
2021/03/19 07:23:11;;;;;;;30.70;11.97;;;1.80;97.30;;;;;;5035498;28;20418;-84
2021/03/19 07:25:55;;;;;;;27.83;12.17;;;1.80;97.30;;;;;;5035008;28;20414;-84
2021/03/19 07:28:29;;;;;;;26.57;11.23;;;1.80;97.30;;;;;;5035067;28;20406;-84
2021/03/19 07:31:25;;;;;;;26.63;11.00;;;1.80;97.30;;;;;;5033783;28;20420;-85
2021/03/19 07:34:10;;;;;;;30.80;12.50;;;1.80;97.30;;;;;;5034909;28;20418;-84
2021/03/19 07:37:10;;;;;;;31.07;12.63;;;1.80;97.30;;;;;;5035243;28;20438;-84
2021/03/19 07:39:55;;;;;;;25.93;10.47;;;1.90;97.30;;;;;;5002689;28;20761;-84
2021/03/19 07:42:48;;;;;;;26.67;13.83;;;2.10;97.30;;;;;;5035173;28;20934;-86
2021/03/19 07:45:31;;;;;;;31.00;12.17;;;2.10;97.30;;;;;;5053761;28;20486;-84
2021/03/19 07:48:35;;;;;;;33.40;13.20;;;2.20;97.30;;;;;;5053668;28;20883;-85
2021/03/19 07:51:28;;;;;;;30.80;12.50;;;2.20;97.30;;;;;;5028835;28;20926;-84
2021/03/19 07:54:13;;;;;;;25.57;11.17;;;2.20;97.30;;;;;;5035789;28;20430;-84
2021/03/19 07:57:19;;;;;;;29.13;13.40;;;2.20;97.30;;;;;;5035550;28;20442;-84
2021/03/19 08:00:12;;;;;;;40.97;13.13;;;2.30;97.30;;;;;;5035546;28;20474;-84
2021/03/19 08:03:03;;;;;;;43.87;14.40;;;2.40;97.30;;;;;;5053552;28;20446;-82
2021/03/19 08:05:46;;;;;;;41.90;13.27;;;2.40;97.30;;;;;;5036496;28;20418;-84
2021/03/19 08:08:31;;;;;;;48.50;15.70;;;2.40;97.30;;;;;;5052867;28;20410;-85
2021/03/19 08:11:06;;;;;;;35.87;14.00;;;2.40;97.30;;;;;;5035802;28;20847;-85
2021/03/19 08:13:52;;;;;;;44.67;15.80;;;2.40;97.30;;;;;;5036281;28;20497;-84
2021/03/19 08:16:36;;;;;;;41.10;16.60;;;2.40;97.30;;;;;;5053845;28;20450;-84
2021/03/19 08:19:08;;;;;;;49.70;18.77;;;2.30;97.30;;;;;;5053895;28;20414;-84
2021/03/19 08:22:03;;;;;;;45.30;17.60;;;2.40;97.30;;;;;;5036102;28;20941;-84
2021/03/19 08:24:53;;;;;;;43.60;17.80;;;2.40;97.30;;;;;;5036282;28;20791;-83
2021/03/19 08:27:40;;;;;;;44.87;19.33;;;2.50;97.30;;;;;;5036475;28;20435;-84
2021/03/19 08:30:21;;;;;;;39.90;17.60;;;2.50;97.30;;;;;;5036111;28;20406;-84
2021/03/19 08:33:02;;;;;;;43.03;17.33;;;2.40;97.30;;;;;;5055616;28;20463;-84
2021/03/19 08:35:48;;;;;;;38.67;16.37;;;2.40;97.30;;;;;;5039872;28;20483;-84
2021/03/19 08:38:43;;;;;;;37.17;17.00;;;2.40;97.30;;;;;;5039182;28;20961;-84
2021/03/19 08:41:15;;;;;;;39.27;14.87;;;2.40;97.30;;;;;;5039095;28;20461;-84
2021/03/19 08:43:59;;;;;;;39.77;15.70;;;2.40;97.30;;;;;;5039790;28;20453;-84
2021/03/19 08:46:51;;;;;;;38.40;16.57;;;2.40;97.30;;;;;;5024818;28;20556;-82
2021/03/19 08:49:26;;;;;;;41.77;16.73;;;2.50;97.30;;;;;;4996557;28;20479;-84
2021/03/19 08:51:55;;;;;;;51.63;16.60;;;2.40;97.30;;;;;;4996110;28;20420;-83
2021/03/19 08:54:31;;;;;;;36.97;16.03;;;2.40;97.30;;;;;;4996609;28;20424;-84
2021/03/19 08:57:03;;;;;;;41.37;14.73;;;2.30;97.30;;;;;;4997763;28;20436;-84
2021/03/19 08:59:34;;;;;;;33.60;14.67;;;2.30;97.30;;;;;;4995882;28;20467;-84
2021/03/19 09:02:10;;;;;;;33.80;14.80;;;2.20;97.30;;;;;;4995421;28;20441;-84
2021/03/19 09:05:00;;;;;;;33.00;13.97;;;2.20;97.30;;;;;;4995434;28;20423;-85
2021/03/19 09:08:10;;;;;;;37.10;13.70;;;2.10;97.30;;;;;;4995043;28;20464;-84
2021/03/19 09:10:36;;;;;;;28.10;11.40;;;2.00;97.30;;;;;;4985304;28;20510;-84
2021/03/19 09:13:07;;;;;;;30.53;13.20;;;2.00;97.30;;;;;;4994118;28;20480;-84
2021/03/19 09:15:36;;;;;;;29.60;13.27;;;2.00;97.30;;;;;;4995685;28;20170;-85
2021/03/19 09:18:04;;;;;;;36.10;13.93;;;2.00;97.30;;;;;;4994160;28;20425;-84
2021/03/19 09:21:04;;;;;;;35.27;14.13;;;2.00;97.30;;;;;;4994313;28;20479;-84
2021/03/19 09:23:53;;;;;;;36.90;14.13;;;2.00;97.30;;;;;;4995412;28;20427;-84
2021/03/19 09:26:24;;;;;;;33.13;13.80;;;2.00;97.30;;;;;;4996392;28;20685;-84
2021/03/19 09:29:08;;;;;;;31.10;12.80;;;2.10;97.30;;;;;;4995482;28;20950;-84
2021/03/19 09:31:49;;;;;;;35.43;13.30;;;2.10;97.30;;;;;;4995580;28;20413;-83
2021/03/19 09:34:45;;;;;;;29.93;12.43;;;2.20;97.30;;;;;;4995678;28;20413;-85
2021/03/19 09:37:52;;;;;;;40.90;13.80;;;2.20;97.30;;;;;;4988118;28;20465;-84
2021/03/19 09:40:36;;;;;;;36.20;14.20;;;2.30;97.30;;;;;;4988771;28;20464;-84
2021/03/19 09:43:02;;;;;;;29.47;13.67;;;2.40;97.30;;;;;;4997985;28;20428;-84
2021/03/19 09:45:31;;;;;;;35.50;13.70;;;2.50;97.30;;;;;;4998022;28;20418;-83
2021/03/19 09:48:10;;;;;;;33.00;13.67;;;2.70;97.30;;;;;;5037548;28;20176;-84
2021/03/19 09:50:46;;;;;;;33.13;13.40;;;2.90;97.30;;;;;;5020501;28;20427;-83
2021/03/19 09:53:25;;;;;;;27.13;11.73;;;3.20;97.30;;;;;;5021125;28;20796;-85
2021/03/19 09:55:56;;;;;;;31.37;12.30;;;3.60;97.30;;;;;;5021167;28;20455;-84
2021/03/19 09:58:34;;;;;;;27.10;12.10;;;3.80;97.30;;;;;;5021517;28;20407;-84
2021/03/19 10:01:11;;;;;;;29.20;13.00;;;3.90;97.30;;;;;;5021713;28;20462;-84
2021/03/19 10:03:50;;;;;;;33.60;12.80;;;3.80;97.30;;;;;;5020892;28;20406;-83
2021/03/19 10:06:25;;;;;;;30.93;14.00;;;3.90;97.30;;;;;;5019529;28;20443;-83
2021/03/19 10:09:00;;;;;;;31.63;13.70;;;4.10;97.30;;;;;;5018587;28;20447;-83
2021/03/19 10:11:26;;;;;;;26.27;10.07;;;4.30;97.30;;;;;;5019042;28;21019;-83
2021/03/19 10:13:51;;;;;;;26.50;11.40;;;4.30;97.30;;;;;;5021502;28;20427;-83
2021/03/19 10:16:23;;;;;;;25.50;11.50;;;4.20;97.30;;;;;;5021494;28;20211;-84
2021/03/19 10:18:50;;;;;;;22.43;10.13;;;4.30;97.30;;;;;;5021975;28;20187;-83
2021/03/19 10:21:20;;;;;;;24.53;11.33;;;4.30;97.30;;;;;;5020283;28;20471;-83
2021/03/19 10:23:58;;;;;;;24.33;11.30;;;4.30;97.30;;;;;;5019131;28;20789;-84
2021/03/19 10:26:33;;;;;;;23.53;10.63;;;4.20;97.30;;;;;;5019280;28;20548;-84
2021/03/19 10:29:39;;;;;;;22.13;10.17;;;4.20;97.30;;;;;;5019487;28;20415;-83
2021/03/19 10:32:13;;;;;;;19.50;8.40;;;4.40;97.30;;;;;;5017067;28;20430;-84
2021/03/19 10:35:07;;;;;;;17.00;7.40;;;4.60;97.30;;;;;;5018605;28;21031;-84
2021/03/19 10:37:42;;;;;;;23.73;8.53;;;4.90;97.30;;;;;;5018789;28;20825;-82
2021/03/19 10:40:25;;;;;;;11.73;6.30;;;5.30;97.30;;;;;;5018694;28;20531;-83
2021/03/19 10:42:54;;;;;;;16.17;8.00;;;5.50;97.30;;;;;;5018032;28;20446;-84
2021/03/19 10:45:36;;;;;;;19.63;9.53;;;5.60;97.30;;;;;;5018608;28;20989;-83
2021/03/19 10:48:15;;;;;;;21.20;9.07;;;5.70;97.30;;;;;;5099959;23;20897;-75
2021/03/19 10:51:00;;;;;;;18.53;8.20;;;5.90;97.30;;;;;;5029107;28;20439;-75
2021/03/19 10:53:49;;;;;;;19.40;8.70;;;5.70;96.10;;;;;;5011070;28;20858;-75
2021/03/19 10:56:16;;;;;;;12.57;6.90;;;5.60;97.20;;;;;;4974558;28;20853;-75
2021/03/19 10:58:53;;;;;;;20.83;7.57;;;5.70;95.90;;;;;;5012714;28;20944;-74
2021/03/19 11:01:37;;;;;;;18.73;6.70;;;5.60;95.20;;;;;;5010575;28;20521;-75
2021/03/19 11:04:24;;;;;;;17.50;6.77;;;5.60;94.00;;;;;;5010539;28;20420;-75
2021/03/19 11:06:51;;;;;;;12.27;5.97;;;5.60;93.60;;;;;;5011016;28;20951;-74
2021/03/19 11:09:24;;;;;;;14.80;7.60;;;5.70;93.90;;;;;;5010642;28;20428;-74
2021/03/19 11:11:55;;;;;;;14.20;6.03;;;5.80;94.70;;;;;;5011762;28;20439;-74
2021/03/19 11:14:26;;;;;;;13.93;6.83;;;5.80;94.70;;;;;;5011027;28;20498;-74
2021/03/19 11:16:54;;;;;;;12.10;5.90;;;5.70;92.80;;;;;;5010430;28;20764;-74
2021/03/19 11:19:23;;;;;;;12.53;5.70;;;5.60;92.50;;;;;;5010277;28;20900;-73
2021/03/19 11:22:04;;;;;;;9.10;4.80;;;5.80;94.10;;;;;;5012077;28;20519;-74
2021/03/19 11:24:34;;;;;;;10.90;5.60;;;6.00;92.30;;;;;;5010188;28;20947;-74
2021/03/19 11:27:10;;;;;;;11.57;6.20;;;6.20;91.10;;;;;;5010829;28;20848;-74
2021/03/19 11:29:38;;;;;;;10.73;4.53;;;6.30;89.90;;;;;;5011520;28;20916;-74
2021/03/19 11:32:13;;;;;;;12.27;6.43;;;6.40;89.90;;;;;;5009659;28;20431;-75
2021/03/19 11:34:47;;;;;;;13.27;4.90;;;6.50;89.80;;;;;;5010114;28;20415;-74
2021/03/19 11:37:31;;;;;;;5.90;3.50;;;6.60;90.50;;;;;;5010535;28;20469;-74
2021/03/19 11:40:29;;;;;;;5.67;3.60;;;6.80;88.30;;;;;;5009554;28;20831;-74
2021/03/19 11:43:00;;;;;;;4.90;2.93;;;6.90;87.00;;;;;;4989120;28;20853;-74
2021/03/19 11:45:29;;;;;;;7.27;3.53;;;7.00;86.20;;;;;;5011549;28;20557;-74
2021/03/19 11:47:58;;;;;;;6.30;3.10;;;7.00;85.40;;;;;;5037644;28;20493;-74
2021/03/19 11:50:24;;;;;;;8.50;3.50;;;7.10;84.80;;;;;;5032917;28;20426;-74
2021/03/19 11:52:58;;;;;;;3.27;1.90;;;7.20;86.00;;;;;;5033283;28;20864;-74
2021/03/19 11:55:33;;;;;;;5.27;3.20;;;7.20;83.10;;;;;;5032263;28;20411;-74
2021/03/19 11:57:59;;;;;;;4.83;3.23;;;7.20;85.20;;;;;;5032761;28;20869;-74
2021/03/19 12:00:28;;;;;;;6.93;3.57;;;7.10;84.30;;;;;;5033442;28;20477;-74
2021/03/19 12:02:58;;;;;;;7.00;2.90;;;7.00;84.80;;;;;;5032280;28;20437;-74
2021/03/19 12:05:24;;;;;;;4.50;2.40;;;6.90;84.00;;;;;;5032934;28;20414;-74
2021/03/19 12:07:50;;;;;;;4.53;2.70;;;6.90;84.20;;;;;;5033404;28;20419;-74
2021/03/19 12:10:18;;;;;;;3.80;2.30;;;6.80;83.70;;;;;;5050083;28;20933;-74
2021/03/19 12:12:45;;;;;;;3.77;2.40;;;6.80;84.50;;;;;;5032473;28;20199;-75
2021/03/19 12:15:15;;;;;;;3.90;2.60;;;6.80;84.50;;;;;;5033412;28;20446;-74
2021/03/19 12:17:41;;;;;;;3.33;2.60;;;7.00;85.70;;;;;;5050372;28;20402;-74
2021/03/19 12:20:07;;;;;;;7.97;2.70;;;7.20;84.80;;;;;;5049810;28;20450;-74
2021/03/19 12:22:33;;;;;;;4.87;3.07;;;7.20;84.50;;;;;;5032931;28;20752;-74
2021/03/19 12:24:59;;;;;;;5.07;3.07;;;7.20;85.30;;;;;;5032260;28;20497;-74
2021/03/19 12:27:25;;;;;;;4.33;3.00;;;7.10;85.20;;;;;;5032444;28;20167;-75
2021/03/19 12:29:51;;;;;;;3.40;2.80;;;6.80;84.90;;;;;;5033141;28;20223;-74
2021/03/19 12:32:18;;;;;;;5.63;3.23;;;6.60;86.90;;;;;;5049677;28;20461;-74
2021/03/19 12:34:45;;;;;;;6.40;3.67;;;6.50;87.60;;;;;;5032051;28;20218;-74
2021/03/19 12:37:11;;;;;;;7.17;4.37;;;6.40;87.30;;;;;;5032740;28;20410;-74
2021/03/19 12:39:37;;;;;;;7.10;4.10;;;6.30;88.80;;;;;;5032386;28;20468;-75
2021/03/19 12:42:03;;;;;;;6.23;3.60;;;6.10;89.30;;;;;;5032035;28;20203;-74
2021/03/19 12:44:28;;;;;;;4.53;3.63;;;5.90;89.90;;;;;;5033337;28;20221;-73
2021/03/19 12:46:55;;;;;;;6.83;4.03;;;5.80;90.10;;;;;;5042293;28;20454;-74
2021/03/19 12:49:21;;;;;;;4.30;3.47;;;5.70;91.00;;;;;;5011920;28;20173;-75
2021/03/19 12:51:46;;;;;;;6.83;3.70;;;5.60;90.80;;;;;;5030183;28;20441;-73
2021/03/19 12:54:13;;;;;;;7.13;3.60;;;5.50;92.30;;;;;;5012621;28;20222;-74
2021/03/19 12:56:38;;;;;;;5.10;3.57;;;5.60;92.20;;;;;;5012481;28;20189;-74
2021/03/19 12:59:04;;;;;;;6.00;3.43;;;5.60;90.90;;;;;;5030612;28;20414;-74
2021/03/19 13:01:30;;;;;;;7.67;4.20;;;5.70;91.40;;;;;;5030365;28;20208;-74
2021/03/19 13:03:56;;;;;;;10.00;4.63;;;5.70;91.30;;;;;;5011735;28;20172;-74
2021/03/19 13:06:23;;;;;;;6.43;4.20;;;5.80;91.70;;;;;;5030292;28;20949;-74
2021/03/19 13:08:49;;;;;;;8.43;3.97;;;5.90;91.50;;;;;;5012622;28;20173;-74
2021/03/19 13:11:16;;;;;;;6.33;3.70;;;5.80;91.10;;;;;;5030027;28;20437;-74
2021/03/19 13:13:42;;;;;;;6.40;3.73;;;5.70;91.90;;;;;;5012460;28;20476;-74
2021/03/19 13:16:08;;;;;;;7.43;4.93;;;5.50;92.00;;;;;;5030726;28;20411;-74
2021/03/19 13:18:34;;;;;;;9.20;5.00;;;5.30;92.70;;;;;;5013841;28;20420;-74
2021/03/19 13:21:01;;;;;;;7.20;4.23;;;5.10;94.10;;;;;;5015533;28;20462;-74